GCRR

Lanzarote

Airport
ICAO code
GCRR
Summary
ICAO Region
EUR
ICAO Territory
Location

Arrecife,

Coordinates
28° 56' 44" N , 13° 36' 19" W
KCC
Csa
Metar
Observation
GCRR 120200Z AUTO 03006KT CAVOK 22/18 Q1014
Station
Lanzarote / Aeropuerto
Date/Time
2022-08-12 02:00:00
Wind direction
30°
Wind speed
06 kts
Lowest cloud amount
clouds and visibility OK
Temperature
22°C
Dew point
18°C
Humidity
78%
QNH
1014 hPa
Weather condition
n/a

Description

Airport serving the island of Lanzarote.

Climatology

Dry-summer subtropical ”Mediterranean" climate (Köppen climate classification Csa) - characterized by hot, dry summers and mild winters. During the summer, subtropical high pressure cells dominate, making rainfall unlikely except for the occasional thunderstorm. In the winter, periodic storms bring rain (snow at higher elevations).

Runways

Designator Length Width Surface Rops
3/21 2400 45 ASP Yes/Yes

Airport map

Aerial View

SKYbrary Partners:

Safety knowledge contributed by: